Metar GG30 METAR message from awiacja.imgw.pl Metar G30 EPBY METAR EPBY 240430Z 13006KT 0600 R26/1600D FG VV002 11/11 Q1015 =